createdAt,value
2023-02-11T00:00:40.054Z,49.00
2023-02-11T00:03:06.893Z,45.80
2023-02-11T00:05:33.730Z,47.20
2023-02-11T00:08:00.107Z,45.90
2023-02-11T00:10:26.482Z,47.63
2023-02-11T00:12:52.811Z,46.70
2023-02-11T00:15:19.132Z,47.33
2023-02-11T00:17:45.451Z,46.70
2023-02-11T00:20:11.760Z,48.17
2023-02-11T00:22:38.065Z,49.92
2023-02-11T00:25:04.643Z,50.80
2023-02-11T00:27:30.960Z,48.63
2023-02-11T00:29:57.278Z,50.75
2023-02-11T00:32:23.603Z,50.33
2023-02-11T00:34:52.540Z,48.78
2023-02-11T00:37:18.853Z,49.03
2023-02-11T00:39:45.206Z,52.08
2023-02-11T00:42:14.482Z,51.15
2023-02-11T00:44:40.888Z,49.45
2023-02-11T00:47:07.189Z,48.60
2023-02-11T00:49:33.657Z,50.00
2023-02-11T00:51:59.972Z,51.35
2023-02-11T00:54:28.394Z,49.78
2023-02-11T00:56:55.986Z,50.13
2023-02-11T00:59:22.293Z,48.45
2023-02-11T01:01:48.640Z,49.38
2023-02-11T01:04:15.008Z,48.72
2023-02-11T01:06:41.321Z,48.42
2023-02-11T01:09:07.636Z,46.78
2023-02-11T01:11:33.958Z,47.97
2023-02-11T01:14:00.292Z,47.08
2023-02-11T01:16:26.607Z,49.30
2023-02-11T01:18:52.933Z,50.08
2023-02-11T01:21:19.319Z,48.65
2023-02-11T01:23:45.627Z,49.33
2023-02-11T01:26:12.145Z,48.38
2023-02-11T01:28:38.582Z,49.03
2023-02-11T01:31:05.077Z,49.25
2023-02-11T01:33:31.515Z,50.55
2023-02-11T01:36:02.885Z,49.47
2023-02-11T01:38:29.922Z,49.67
2023-02-11T01:40:59.992Z,49.03
2023-02-11T01:43:31.009Z,48.22
2023-02-11T01:46:17.523Z,48.85
2023-02-11T01:48:47.669Z,49.05
2023-02-11T01:51:23.250Z,47.40
2023-02-11T01:53:49.976Z,47.35
2023-02-11T01:56:18.053Z,48.70
2023-02-11T01:58:47.081Z,47.17
2023-02-11T02:01:17.652Z,49.15
2023-02-11T02:03:47.620Z,49.47
2023-02-11T02:06:24.636Z,48.55
2023-02-11T02:09:01.136Z,46.92
2023-02-11T02:11:27.701Z,49.15
2023-02-11T02:13:54.012Z,46.53
2023-02-11T02:16:24.849Z,47.58
2023-02-11T02:19:13.658Z,48.67
2023-02-11T02:21:59.193Z,48.38
2023-02-11T02:24:43.477Z,47.70
2023-02-11T02:27:47.539Z,50.67
2023-02-11T02:30:55.744Z,49.58
2023-02-11T02:34:00.563Z,48.38
2023-02-11T02:36:57.067Z,48.50
2023-02-11T02:39:28.485Z,51.40
2023-02-11T02:41:56.738Z,51.67
2023-02-11T02:44:23.885Z,51.90
2023-02-11T02:46:50.249Z,50.90
2023-02-11T02:49:17.167Z,50.33
2023-02-11T02:52:07.075Z,47.13
2023-02-11T02:54:53.005Z,50.67
2023-02-11T02:57:37.625Z,50.60
2023-02-11T03:00:19.087Z,50.97
2023-02-11T03:03:15.623Z,50.78
2023-02-11T03:05:54.371Z,49.65
2023-02-11T03:09:05.883Z,50.03
2023-02-11T03:11:34.174Z,51.72
2023-02-11T03:14:04.571Z,50.20
2023-02-11T03:16:31.074Z,51.20
2023-02-11T03:19:03.681Z,51.70
2023-02-11T03:21:34.187Z,51.38
2023-02-11T03:24:05.739Z,50.35
2023-02-11T03:26:46.438Z,53.08
2023-02-11T03:29:18.607Z,52.85
2023-02-11T03:32:03.581Z,52.33
2023-02-11T03:34:37.808Z,51.13
2023-02-11T03:37:17.660Z,52.10
2023-02-11T03:39:54.966Z,51.80
2023-02-11T03:42:26.356Z,53.13
2023-02-11T03:45:00.323Z,49.78
2023-02-11T03:47:29.284Z,51.47
2023-02-11T03:49:58.794Z,53.08
2023-02-11T03:52:26.099Z,53.00
2023-02-11T03:54:55.988Z,52.05
2023-02-11T03:57:22.316Z,53.83
2023-02-11T03:59:59.260Z,53.42
2023-02-11T04:02:33.118Z,50.88
2023-02-11T04:04:59.998Z,37.78
2023-02-11T04:07:27.204Z,52.70
2023-02-11T04:09:53.720Z,52.15
2023-02-11T04:12:20.705Z,51.03
2023-02-11T04:14:47.035Z,50.65
2023-02-11T04:17:13.450Z,51.05
2023-02-11T04:19:39.807Z,49.85
2023-02-11T04:22:07.092Z,50.45
2023-02-11T04:24:33.747Z,50.38
2023-02-11T04:27:00.093Z,50.78
2023-02-11T04:29:26.645Z,51.38
2023-02-11T04:31:52.964Z,48.75
2023-02-11T04:34:19.294Z,50.72
2023-02-11T04:36:45.594Z,46.45
2023-02-11T04:39:11.988Z,47.63
2023-02-11T04:41:38.425Z,48.40
2023-02-11T04:44:05.368Z,48.08
2023-02-11T04:46:31.707Z,46.38
2023-02-11T04:48:58.170Z,45.67
2023-02-11T04:51:24.793Z,44.25
2023-02-11T04:53:51.132Z,43.25
2023-02-11T04:56:17.477Z,45.50
2023-02-11T04:58:43.792Z,43.47
2023-02-11T05:01:13.471Z,43.88
2023-02-11T05:03:40.317Z,42.15
2023-02-11T05:06:07.043Z,43.00
2023-02-11T05:08:33.422Z,41.97
2023-02-11T05:10:59.930Z,43.67
2023-02-11T05:13:26.217Z,40.47
2023-02-11T05:15:52.993Z,43.90
2023-02-11T05:18:19.406Z,41.33
2023-02-11T05:20:45.705Z,40.97
2023-02-11T05:23:12.286Z,41.53
2023-02-11T05:25:38.933Z,39.20
2023-02-11T05:28:06.241Z,41.33
2023-02-11T05:30:32.782Z,41.25
2023-02-11T05:32:59.077Z,40.60
2023-02-11T05:35:25.542Z,41.55
2023-02-11T05:37:51.847Z,40.78
2023-02-11T05:40:18.244Z,42.03
2023-02-11T05:42:44.523Z,41.92
2023-02-11T05:45:10.847Z,40.42
2023-02-11T05:47:37.139Z,40.50
2023-02-11T05:50:03.727Z,41.95
2023-02-11T05:52:30.054Z,41.15
2023-02-11T05:54:56.363Z,40.35
2023-02-11T05:57:22.999Z,41.63
2023-02-11T05:59:49.309Z,41.38
2023-02-11T06:02:15.687Z,40.92
2023-02-11T06:04:42.056Z,39.72
2023-02-11T06:07:08.398Z,38.90
2023-02-11T06:09:34.709Z,41.58
2023-02-11T06:12:01.018Z,39.65
2023-02-11T06:14:27.332Z,40.03
2023-02-11T06:16:53.659Z,41.55
2023-02-11T06:19:19.996Z,40.35
2023-02-11T06:21:46.342Z,40.40
2023-02-11T06:24:12.980Z,40.13
2023-02-11T06:26:39.314Z,40.78
2023-02-11T06:29:05.629Z,39.63
2023-02-11T06:31:32.094Z,39.67
2023-02-11T06:33:58.435Z,42.35
2023-02-11T06:36:25.056Z,40.42
2023-02-11T06:38:52.035Z,41.60
2023-02-11T06:41:19.893Z,40.10
2023-02-11T06:43:46.436Z,41.75
2023-02-11T06:46:13.151Z,40.03
2023-02-11T06:48:39.537Z,38.97
2023-02-11T06:51:08.468Z,39.17
2023-02-11T06:53:40.431Z,41.55
2023-02-11T06:56:09.875Z,39.95
2023-02-11T06:58:37.112Z,41.92
2023-02-11T07:01:08.550Z,40.22
2023-02-11T07:03:36.778Z,39.22
2023-02-11T07:06:04.129Z,42.70
2023-02-11T07:08:30.439Z,39.95
2023-02-11T07:10:56.740Z,40.45
2023-02-11T07:13:23.052Z,41.00
2023-02-11T07:15:49.708Z,39.15
2023-02-11T07:18:16.266Z,39.83
2023-02-11T07:20:42.824Z,40.78
2023-02-11T07:23:09.196Z,42.05
2023-02-11T07:25:36.080Z,41.15
2023-02-11T07:28:03.984Z,42.45
2023-02-11T07:30:30.340Z,41.53
2023-02-11T07:32:56.684Z,41.88
2023-02-11T07:35:22.992Z,40.90
2023-02-11T07:37:49.288Z,42.20
2023-02-11T07:40:15.670Z,43.25
2023-02-11T07:42:41.982Z,43.63
2023-02-11T07:45:08.738Z,42.60
2023-02-11T07:47:35.558Z,41.92
2023-02-11T07:50:01.880Z,43.15
2023-02-11T07:52:31.420Z,42.70
2023-02-11T07:54:57.734Z,43.05
2023-02-11T07:57:24.040Z,42.45
2023-02-11T07:59:50.335Z,43.10
2023-02-11T08:02:16.683Z,42.65
2023-02-11T08:04:42.988Z,45.83
2023-02-11T08:07:09.294Z,44.55
2023-02-11T08:09:35.645Z,42.40
2023-02-11T08:12:02.050Z,45.13
2023-02-11T08:14:28.354Z,45.33
2023-02-11T08:16:54.706Z,45.58
2023-02-11T08:19:21.066Z,45.38
2023-02-11T08:21:47.399Z,45.47
2023-02-11T08:24:13.735Z,43.88
2023-02-11T08:26:40.154Z,44.38
2023-02-11T08:29:10.793Z,42.72
2023-02-11T08:31:40.899Z,44.20
2023-02-11T08:34:07.245Z,42.53
2023-02-11T08:36:36.239Z,44.10
2023-02-11T08:39:18.470Z,46.30
2023-02-11T08:41:47.476Z,47.20
2023-02-11T08:44:13.905Z,45.90
2023-02-11T08:46:40.388Z,46.58
2023-02-11T08:49:06.692Z,46.65
2023-02-11T08:51:33.333Z,46.03
2023-02-11T08:54:00.731Z,46.53
2023-02-11T08:56:28.051Z,46.83
2023-02-11T08:58:54.822Z,45.80
2023-02-11T09:01:25.277Z,45.38
2023-02-11T09:03:51.736Z,45.08
2023-02-11T09:06:18.682Z,46.65
2023-02-11T09:08:48.516Z,44.88
2023-02-11T09:11:15.593Z,45.58
2023-02-11T09:13:43.584Z,44.30
2023-02-11T09:16:18.286Z,45.88
2023-02-11T09:18:44.696Z,45.47
2023-02-11T09:21:11.274Z,46.35
2023-02-11T09:23:37.596Z,43.42
2023-02-11T09:26:09.460Z,43.95
2023-02-11T09:28:35.986Z,45.58
2023-02-11T09:31:10.276Z,44.20
2023-02-11T09:33:38.615Z,44.20
2023-02-11T09:36:06.401Z,45.63
2023-02-11T09:38:33.221Z,45.80
2023-02-11T09:40:59.727Z,45.78
2023-02-11T09:43:53.873Z,44.80
2023-02-11T09:46:22.987Z,46.08
2023-02-11T09:48:51.736Z,47.10
2023-02-11T09:51:47.558Z,47.20
2023-02-11T09:54:23.180Z,45.42
2023-02-11T09:56:49.500Z,46.58
2023-02-11T09:59:16.634Z,48.10
2023-02-11T10:01:58.848Z,47.35
2023-02-11T10:04:59.346Z,47.80
2023-02-11T10:07:41.766Z,46.42
2023-02-11T10:10:35.172Z,45.33
2023-02-11T10:13:35.786Z,45.15
2023-02-11T10:16:40.628Z,46.33
2023-02-11T10:19:15.360Z,43.88
2023-02-11T10:21:57.411Z,44.42
2023-02-11T10:24:24.350Z,44.60
2023-02-11T10:26:51.748Z,45.55
2023-02-11T10:29:36.550Z,45.85
2023-02-11T10:32:10.991Z,46.13
2023-02-11T10:34:41.419Z,45.30
2023-02-11T10:37:12.845Z,45.00
2023-02-11T10:39:40.838Z,43.05
2023-02-11T10:42:11.693Z,44.42
2023-02-11T10:44:42.385Z,44.75
2023-02-11T10:47:18.675Z,45.10
2023-02-11T10:49:46.732Z,43.08
2023-02-11T10:52:17.433Z,43.03
2023-02-11T10:55:00.665Z,43.47
2023-02-11T10:57:40.514Z,43.63
2023-02-11T11:00:40.129Z,44.08
2023-02-11T11:03:19.919Z,43.95
2023-02-11T11:05:52.416Z,41.13
2023-02-11T11:08:19.535Z,42.03
2023-02-11T11:11:02.498Z,41.60
2023-02-11T11:13:34.916Z,41.30
2023-02-11T11:16:13.602Z,40.08
2023-02-11T11:18:41.650Z,38.75
2023-02-11T11:21:15.961Z,38.03
2023-02-11T11:23:49.995Z,36.80
2023-02-11T11:26:17.831Z,38.10
2023-02-11T11:28:54.760Z,35.75
2023-02-11T11:31:32.734Z,36.42
2023-02-11T11:34:03.460Z,37.15
2023-02-11T11:36:37.700Z,36.00
2023-02-11T11:39:24.683Z,34.67
2023-02-11T11:42:02.562Z,34.25
2023-02-11T11:44:35.246Z,34.53
2023-02-11T11:47:07.571Z,34.28
2023-02-11T11:49:41.630Z,33.38
2023-02-11T11:52:46.165Z,33.55
2023-02-11T11:55:22.629Z,35.75
2023-02-11T11:57:49.427Z,33.72
2023-02-11T12:00:20.775Z,34.03
2023-02-11T12:03:08.730Z,35.22
2023-02-11T12:05:44.129Z,34.10
2023-02-11T12:08:25.420Z,31.80
2023-02-11T12:11:16.582Z,35.38
2023-02-11T12:14:00.695Z,33.30
2023-02-11T12:16:50.830Z,33.67
2023-02-11T12:19:32.400Z,35.83
2023-02-11T12:22:26.469Z,34.83
2023-02-11T12:25:16.294Z,37.35
2023-02-11T12:27:45.354Z,35.78
2023-02-11T12:30:50.625Z,35.50
2023-02-11T12:34:07.998Z,37.03
2023-02-11T12:36:57.722Z,36.25
2023-02-11T12:39:44.231Z,34.22
2023-02-11T12:42:31.763Z,36.65
2023-02-11T12:45:08.745Z,36.80
2023-02-11T12:48:13.936Z,37.03
2023-02-11T12:50:54.857Z,36.75
2023-02-11T12:53:30.230Z,38.88
2023-02-11T12:56:04.724Z,38.05
2023-02-11T12:58:44.937Z,36.35
2023-02-11T13:01:24.520Z,36.38
2023-02-11T13:03:55.791Z,37.10
2023-02-11T13:06:29.141Z,36.22
2023-02-11T13:09:02.784Z,36.33
2023-02-11T13:11:40.169Z,34.38
2023-02-11T13:14:21.830Z,35.95
2023-02-11T13:16:50.532Z,35.35
2023-02-11T13:19:25.219Z,33.45
2023-02-11T13:22:04.067Z,35.83
2023-02-11T13:24:33.119Z,34.28
2023-02-11T13:27:24.681Z,34.20
2023-02-11T13:30:16.044Z,33.20
2023-02-11T13:32:54.677Z,34.08
2023-02-11T13:35:42.657Z,33.55
2023-02-11T13:38:19.722Z,34.67
2023-02-11T13:41:04.715Z,34.10
2023-02-11T13:43:33.621Z,33.60
2023-02-11T13:46:02.920Z,34.25
2023-02-11T13:48:33.254Z,33.35
2023-02-11T13:51:02.670Z,33.97
2023-02-11T13:53:29.733Z,33.97
2023-02-11T13:56:08.792Z,34.72
2023-02-11T13:58:49.571Z,33.13
2023-02-11T14:01:42.152Z,34.55
2023-02-11T14:04:23.193Z,32.13
2023-02-11T14:07:26.450Z,32.35
2023-02-11T14:09:52.771Z,34.28
2023-02-11T14:12:25.455Z,33.75
2023-02-11T14:15:18.873Z,34.58
2023-02-11T14:17:45.823Z,33.88
2023-02-11T14:20:32.948Z,34.22
2023-02-11T14:22:59.870Z,33.08
2023-02-11T14:25:26.846Z,33.42
2023-02-11T14:28:00.818Z,33.85
2023-02-11T14:30:34.690Z,32.63
2023-02-11T14:33:16.704Z,33.40
2023-02-11T14:36:05.219Z,33.88
2023-02-11T14:39:09.256Z,33.63
2023-02-11T14:41:41.564Z,34.78
2023-02-11T14:44:21.123Z,34.05
2023-02-11T14:46:49.821Z,34.55
2023-02-11T14:49:26.382Z,35.22
2023-02-11T14:51:56.282Z,36.45
2023-02-11T14:54:26.647Z,37.55
2023-02-11T14:57:16.102Z,34.65
2023-02-11T15:00:00.599Z,33.60
2023-02-11T15:02:34.755Z,36.47
2023-02-11T15:05:24.163Z,35.33
2023-02-11T15:07:54.103Z,35.10
2023-02-11T15:10:32.720Z,35.22
2023-02-11T15:13:00.706Z,34.85
2023-02-11T15:15:28.271Z,38.00
2023-02-11T15:17:58.019Z,36.75
2023-02-11T15:20:31.012Z,35.47
2023-02-11T15:23:07.556Z,36.15
2023-02-11T15:25:34.406Z,34.78
2023-02-11T15:28:00.972Z,36.95
2023-02-11T15:30:31.464Z,37.25
2023-02-11T15:33:00.521Z,35.97
2023-02-11T15:35:39.087Z,35.80
2023-02-11T15:38:05.749Z,37.13
2023-02-11T15:40:34.570Z,37.95
2023-02-11T15:43:03.089Z,37.83
2023-02-11T15:45:34.165Z,37.38
2023-02-11T15:48:14.213Z,37.88
2023-02-11T15:50:42.100Z,37.03
2023-02-11T15:53:56.547Z,38.33
2023-02-11T15:56:31.218Z,36.13
2023-02-11T15:59:00.179Z,37.50
2023-02-11T16:01:34.546Z,36.13
2023-02-11T16:04:02.077Z,38.00
2023-02-11T16:06:39.282Z,35.50
2023-02-11T16:09:23.289Z,36.97
2023-02-11T16:11:49.528Z,36.03
2023-02-11T16:14:27.936Z,37.40
2023-02-11T16:16:59.934Z,37.78
2023-02-11T16:19:28.317Z,36.67
2023-02-11T16:21:57.821Z,36.05
2023-02-11T16:24:31.842Z,34.88
2023-02-11T16:27:01.622Z,37.22
2023-02-11T16:29:36.215Z,38.50
2023-02-11T16:32:18.335Z,36.92
2023-02-11T16:34:45.082Z,37.63
2023-02-11T16:37:13.803Z,35.13
2023-02-11T16:39:40.600Z,35.63
2023-02-11T16:42:07.756Z,34.75
2023-02-11T16:44:35.167Z,34.67
2023-02-11T16:47:03.528Z,34.03
2023-02-11T16:49:32.890Z,36.22
2023-02-11T16:52:02.362Z,36.97
2023-02-11T16:54:29.515Z,36.17
2023-02-11T16:56:56.782Z,39.28
2023-02-11T16:59:23.389Z,38.63
2023-02-11T17:01:52.033Z,36.38
2023-02-11T17:04:29.791Z,34.40
2023-02-11T17:06:58.397Z,36.13
2023-02-11T17:09:30.356Z,35.42
2023-02-11T17:11:57.290Z,36.95
2023-02-11T17:14:23.581Z,35.55
2023-02-11T17:16:50.052Z,34.50
2023-02-11T17:19:22.158Z,35.65
2023-02-11T17:21:51.037Z,37.60
2023-02-11T17:24:18.563Z,36.10
2023-02-11T17:26:45.953Z,38.50
2023-02-11T17:29:16.660Z,38.45
2023-02-11T17:31:43.520Z,36.83
2023-02-11T17:34:10.510Z,38.17
2023-02-11T17:36:37.151Z,39.75
2023-02-11T17:39:07.695Z,37.72
2023-02-11T17:41:37.231Z,35.50
2023-02-11T17:44:04.128Z,35.05
2023-02-11T17:46:30.567Z,36.10
2023-02-11T17:48:59.080Z,36.05
2023-02-11T17:51:27.248Z,36.75
2023-02-11T17:53:53.972Z,36.47
2023-02-11T17:56:20.527Z,36.10
2023-02-11T17:58:47.569Z,36.42
2023-02-11T18:01:14.429Z,36.72
2023-02-11T18:03:40.810Z,37.33
2023-02-11T18:06:07.701Z,36.10
2023-02-11T18:08:35.335Z,36.50
2023-02-11T18:11:02.203Z,36.83
2023-02-11T18:13:29.751Z,35.38
2023-02-11T18:16:02.697Z,37.60
2023-02-11T18:18:29.148Z,37.22
2023-02-11T18:20:59.406Z,35.78
2023-02-11T18:23:26.271Z,34.97
2023-02-11T18:25:52.946Z,34.97
2023-02-11T18:28:19.691Z,36.50
2023-02-11T18:30:46.079Z,36.13
2023-02-11T18:33:12.731Z,37.38
2023-02-11T18:35:39.536Z,35.80
2023-02-11T18:38:05.900Z,36.47
2023-02-11T18:40:38.849Z,35.95
2023-02-11T18:43:08.116Z,37.58
2023-02-11T18:45:34.564Z,37.00
2023-02-11T18:48:00.906Z,38.58
2023-02-11T18:50:27.410Z,37.17
2023-02-11T18:52:53.717Z,37.20
2023-02-11T18:55:22.548Z,39.90
2023-02-11T18:57:49.813Z,37.60
2023-02-11T19:00:16.567Z,39.92
2023-02-11T19:02:42.863Z,37.83
2023-02-11T19:05:09.582Z,39.20
2023-02-11T19:07:35.965Z,40.53
2023-02-11T19:10:02.313Z,42.13
2023-02-11T19:12:28.596Z,41.90
2023-02-11T19:14:54.887Z,42.22
2023-02-11T19:17:21.234Z,41.45
2023-02-11T19:19:47.684Z,43.95
2023-02-11T19:22:13.974Z,44.40
2023-02-11T19:24:40.299Z,42.35
2023-02-11T19:27:06.607Z,43.10
2023-02-11T19:29:33.100Z,43.95
2023-02-11T19:31:59.483Z,44.67
2023-02-11T19:34:25.842Z,42.40
2023-02-11T19:36:52.632Z,41.78
2023-02-11T19:39:18.923Z,42.58
2023-02-11T19:41:45.302Z,44.42
2023-02-11T19:44:13.622Z,43.72
2023-02-11T19:46:40.245Z,43.95
2023-02-11T19:49:06.759Z,46.42
2023-02-11T19:51:33.732Z,45.05
2023-02-11T19:54:00.652Z,46.53
2023-02-11T19:56:27.591Z,45.10
2023-02-11T19:58:54.893Z,46.17
2023-02-11T20:01:22.731Z,45.58
2023-02-11T20:03:50.221Z,43.75
2023-02-11T20:06:19.904Z,45.63
2023-02-11T20:08:46.288Z,46.58
2023-02-11T20:11:16.985Z,43.88
2023-02-11T20:13:44.321Z,42.65
2023-02-11T20:16:16.280Z,43.15
2023-02-11T20:18:43.509Z,41.38
2023-02-11T20:21:16.123Z,40.55
2023-02-11T20:23:43.141Z,39.28
2023-02-11T20:26:13.074Z,41.70
2023-02-11T20:28:39.470Z,40.10
2023-02-11T20:31:06.864Z,38.03
2023-02-11T20:33:34.096Z,37.78
2023-02-11T20:36:07.624Z,36.17
2023-02-11T20:38:34.962Z,39.20
2023-02-11T20:41:11.446Z,36.45
2023-02-11T20:43:38.077Z,37.65
2023-02-11T20:46:06.012Z,39.42
2023-02-11T20:48:32.990Z,39.90
2023-02-11T20:51:04.345Z,39.40
2023-02-11T20:53:30.870Z,38.50
2023-02-11T20:56:00.488Z,38.30
2023-02-11T20:58:26.799Z,39.08
2023-02-11T21:00:53.234Z,39.95
2023-02-11T21:03:19.563Z,37.95
2023-02-11T21:05:45.913Z,37.85
2023-02-11T21:08:12.257Z,38.55
2023-02-11T21:10:38.612Z,38.70
2023-02-11T21:13:04.978Z,38.88
2023-02-11T21:15:31.342Z,39.58
2023-02-11T21:17:57.918Z,39.30
2023-02-11T21:20:24.314Z,37.53
2023-02-11T21:22:50.757Z,38.20
2023-02-11T21:25:17.492Z,39.50
2023-02-11T21:27:46.472Z,38.20
2023-02-11T21:30:13.409Z,39.05
2023-02-11T21:32:39.769Z,38.47
2023-02-11T21:35:06.839Z,36.80
2023-02-11T21:37:33.254Z,36.65
2023-02-11T21:39:59.863Z,36.58
2023-02-11T21:42:26.469Z,36.92
2023-02-11T21:44:52.800Z,36.70
2023-02-11T21:47:19.120Z,35.97
2023-02-11T21:49:45.427Z,34.30
2023-02-11T21:52:11.766Z,34.10
2023-02-11T21:54:38.115Z,33.03
2023-02-11T21:57:04.453Z,31.45
2023-02-11T21:59:30.826Z,32.75
2023-02-11T22:01:57.574Z,31.90
2023-02-11T22:04:24.239Z,30.83
2023-02-11T22:06:50.730Z,30.13
2023-02-11T22:09:17.285Z,31.08
2023-02-11T22:11:43.712Z,29.70
2023-02-11T22:14:10.178Z,30.33
2023-02-11T22:16:36.778Z,28.75
2023-02-11T22:19:03.379Z,29.50
2023-02-11T22:21:29.973Z,28.40
2023-02-11T22:23:56.700Z,27.83
2023-02-11T22:26:25.050Z,27.33
2023-02-11T22:28:52.126Z,25.05
2023-02-11T22:31:22.719Z,27.08
2023-02-11T22:33:49.722Z,24.67
2023-02-11T22:36:19.307Z,24.00
2023-02-11T22:38:45.717Z,24.40
2023-02-11T22:41:12.744Z,23.10
2023-02-11T22:43:39.632Z,23.50
2023-02-11T22:46:07.283Z,22.98
2023-02-11T22:48:35.179Z,22.05
2023-02-11T22:51:06.606Z,21.67
2023-02-11T22:53:33.257Z,22.90
2023-02-11T22:56:05.679Z,22.10
2023-02-11T22:58:32.414Z,23.85
2023-02-11T23:00:58.761Z,22.90
2023-02-11T23:03:25.259Z,25.17
2023-02-11T23:05:51.597Z,23.95
2023-02-11T23:08:18.246Z,25.98
2023-02-11T23:10:44.564Z,26.58
2023-02-11T23:13:10.887Z,24.98
2023-02-11T23:15:41.439Z,26.67
2023-02-11T23:18:09.049Z,26.35
2023-02-11T23:20:42.007Z,26.08
2023-02-11T23:23:08.750Z,28.63
2023-02-11T23:25:35.267Z,28.60
2023-02-11T23:28:01.683Z,26.60
2023-02-11T23:30:28.485Z,27.63
2023-02-11T23:32:54.805Z,29.73
2023-02-11T23:35:21.108Z,29.90
2023-02-11T23:37:48.452Z,27.45
2023-02-11T23:40:14.890Z,29.58
2023-02-11T23:42:41.510Z,29.40
2023-02-11T23:45:08.273Z,30.10
2023-02-11T23:47:35.051Z,28.80
2023-02-11T23:50:01.479Z,30.63
2023-02-11T23:52:27.787Z,31.52
2023-02-11T23:54:54.077Z,31.25
2023-02-11T23:57:20.401Z,29.67
2023-02-11T23:59:49.066Z,31.83
